sensor_id;sensor_type;location;lat;lon;timestamp;P1;durP1;ratioP1;P2;durP2;ratioP2
28605;SDS011;46498;49.968;7.754;2023-01-13T00:04:23;2.53;;;0.40;;
28605;SDS011;46498;49.968;7.754;2023-01-13T00:09:24;1.52;;;0.30;;
28605;SDS011;46498;49.968;7.754;2023-01-13T00:14:25;0.85;;;0.40;;
28605;SDS011;46498;49.968;7.754;2023-01-13T00:19:29;0.90;;;0.28;;
28605;SDS011;46498;49.968;7.754;2023-01-13T00:24:30;0.43;;;0.15;;
28605;SDS011;46498;49.968;7.754;2023-01-13T00:29:30;2.87;;;0.20;;
28605;SDS011;46498;49.968;7.754;2023-01-13T00:34:31;0.80;;;0.17;;
28605;SDS011;46498;49.968;7.754;2023-01-13T00:39:32;2.25;;;0.68;;
28605;SDS011;46498;49.968;7.754;2023-01-13T00:44:33;7.53;;;1.77;;
28605;SDS011;46498;49.968;7.754;2023-01-13T00:49:34;9.45;;;2.20;;
28605;SDS011;46498;49.968;7.754;2023-01-13T00:54:35;2.05;;;1.08;;
28605;SDS011;46498;49.968;7.754;2023-01-13T00:59:35;0.47;;;0.20;;
28605;SDS011;46498;49.968;7.754;2023-01-13T01:04:37;1.12;;;0.25;;
28605;SDS011;46498;49.968;7.754;2023-01-13T01:09:38;0.82;;;0.10;;
28605;SDS011;46498;49.968;7.754;2023-01-13T01:14:39;0.30;;;0.10;;
28605;SDS011;46498;49.968;7.754;2023-01-13T01:19:40;0.10;;;0.00;;
28605;SDS011;46498;49.968;7.754;2023-01-13T01:24:41;1.55;;;0.10;;
28605;SDS011;46498;49.968;7.754;2023-01-13T01:29:42;0.62;;;0.10;;
28605;SDS011;46498;49.968;7.754;2023-01-13T01:34:43;0.85;;;0.20;;
28605;SDS011;46498;49.968;7.754;2023-01-13T01:39:43;0.30;;;0.20;;
28605;SDS011;46498;49.968;7.754;2023-01-13T01:53:17;0.17;;;0.00;;
28605;SDS011;46498;49.968;7.754;2023-01-13T01:58:21;0.60;;;0.10;;
28605;SDS011;46498;49.968;7.754;2023-01-13T02:03:29;0.52;;;0.10;;
28605;SDS011;46498;49.968;7.754;2023-01-13T02:08:31;0.88;;;0.47;;
28605;SDS011;46498;49.968;7.754;2023-01-13T02:13:32;1.37;;;0.20;;
28605;SDS011;46498;49.968;7.754;2023-01-13T02:20:27;1.20;;;0.20;;
28605;SDS011;46498;49.968;7.754;2023-01-13T02:25:58;1.05;;;0.20;;
28605;SDS011;46498;49.968;7.754;2023-01-13T02:31:13;1.27;;;0.30;;
28605;SDS011;46498;49.968;7.754;2023-01-13T02:36:38;2.25;;;0.30;;
28605;SDS011;46498;49.968;7.754;2023-01-13T02:42:06;1.33;;;0.50;;
28605;SDS011;46498;49.968;7.754;2023-01-13T02:47:30;1.95;;;0.73;;
28605;SDS011;46498;49.968;7.754;2023-01-13T02:52:42;2.42;;;0.40;;
28605;SDS011;46498;49.968;7.754;2023-01-13T02:57:48;0.00;;;0.00;;
28605;SDS011;46498;49.968;7.754;2023-01-13T03:16:09;0.10;;;0.00;;
28605;SDS011;46498;49.968;7.754;2023-01-13T03:21:27;0.65;;;0.10;;
28605;SDS011;46498;49.968;7.754;2023-01-13T03:27:00;0.00;;;0.00;;
28605;SDS011;46498;49.968;7.754;2023-01-13T03:32:12;0.10;;;0.00;;
28605;SDS011;46498;49.968;7.754;2023-01-13T03:37:20;0.05;;;0.00;;
28605;SDS011;46498;49.968;7.754;2023-01-13T03:42:28;0.13;;;0.00;;
28605;SDS011;46498;49.968;7.754;2023-01-13T03:47:48;0.37;;;0.28;;
28605;SDS011;46498;49.968;7.754;2023-01-13T03:52:59;0.53;;;0.30;;
28605;SDS011;46498;49.968;7.754;2023-01-13T03:58:11;0.65;;;0.30;;
28605;SDS011;46498;49.968;7.754;2023-01-13T04:10:15;0.93;;;0.40;;
28605;SDS011;46498;49.968;7.754;2023-01-13T04:15:21;0.22;;;0.17;;
28605;SDS011;46498;49.968;7.754;2023-01-13T04:20:24;0.82;;;0.30;;
28605;SDS011;46498;49.968;7.754;2023-01-13T04:25:25;1.80;;;0.65;;
28605;SDS011;46498;49.968;7.754;2023-01-13T04:30:26;0.50;;;0.30;;
28605;SDS011;46498;49.968;7.754;2023-01-13T04:35:27;0.98;;;0.40;;
28605;SDS011;46498;49.968;7.754;2023-01-13T04:40:28;2.00;;;0.20;;
28605;SDS011;46498;49.968;7.754;2023-01-13T04:45:29;2.17;;;0.10;;
28605;SDS011;46498;49.968;7.754;2023-01-13T04:50:30;1.55;;;0.20;;
28605;SDS011;46498;49.968;7.754;2023-01-13T04:55:31;0.45;;;0.10;;
28605;SDS011;46498;49.968;7.754;2023-01-13T05:00:32;0.28;;;0.10;;
28605;SDS011;46498;49.968;7.754;2023-01-13T05:05:33;3.22;;;0.30;;
28605;SDS011;46498;49.968;7.754;2023-01-13T05:10:34;2.25;;;0.10;;
28605;SDS011;46498;49.968;7.754;2023-01-13T05:15:38;5.33;;;0.23;;
28605;SDS011;46498;49.968;7.754;2023-01-13T05:20:58;0.70;;;0.20;;
28605;SDS011;46498;49.968;7.754;2023-01-13T05:25:59;0.20;;;0.05;;
28605;SDS011;46498;49.968;7.754;2023-01-13T05:31:01;3.05;;;0.50;;
28605;SDS011;46498;49.968;7.754;2023-01-13T05:36:02;2.67;;;0.30;;
28605;SDS011;46498;49.968;7.754;2023-01-13T05:41:03;0.68;;;0.28;;
28605;SDS011;46498;49.968;7.754;2023-01-13T05:46:23;3.10;;;0.30;;
28605;SDS011;46498;49.968;7.754;2023-01-13T05:51:24;1.65;;;0.57;;
28605;SDS011;46498;49.968;7.754;2023-01-13T05:56:25;3.10;;;1.10;;
28605;SDS011;46498;49.968;7.754;2023-01-13T06:01:26;4.50;;;1.25;;
28605;SDS011;46498;49.968;7.754;2023-01-13T06:06:27;2.97;;;0.50;;
28605;SDS011;46498;49.968;7.754;2023-01-13T06:11:28;3.65;;;0.60;;
28605;SDS011;46498;49.968;7.754;2023-01-13T06:16:28;7.30;;;1.90;;
28605;SDS011;46498;49.968;7.754;2023-01-13T06:21:29;5.93;;;0.90;;
28605;SDS011;46498;49.968;7.754;2023-01-13T06:26:39;3.67;;;0.75;;
28605;SDS011;46498;49.968;7.754;2023-01-13T06:31:41;4.80;;;0.70;;
28605;SDS011;46498;49.968;7.754;2023-01-13T06:36:43;3.47;;;1.17;;
28605;SDS011;46498;49.968;7.754;2023-01-13T06:41:47;3.00;;;1.40;;
28605;SDS011;46498;49.968;7.754;2023-01-13T06:48:26;8.70;;;1.95;;
28605;SDS011;46498;49.968;7.754;2023-01-13T06:53:32;7.32;;;1.60;;
28605;SDS011;46498;49.968;7.754;2023-01-13T06:58:33;7.80;;;2.28;;
28605;SDS011;46498;49.968;7.754;2023-01-13T07:03:33;2.97;;;0.93;;
28605;SDS011;46498;49.968;7.754;2023-01-13T07:08:34;5.85;;;1.30;;
28605;SDS011;46498;49.968;7.754;2023-01-13T07:13:35;3.15;;;0.50;;
28605;SDS011;46498;49.968;7.754;2023-01-13T07:18:54;3.65;;;1.05;;
28605;SDS011;46498;49.968;7.754;2023-01-13T07:23:56;5.93;;;0.98;;
28605;SDS011;46498;49.968;7.754;2023-01-13T07:28:57;5.03;;;1.17;;
28605;SDS011;46498;49.968;7.754;2023-01-13T07:33:58;11.00;;;3.30;;
28605;SDS011;46498;49.968;7.754;2023-01-13T07:38:59;13.62;;;1.62;;
28605;SDS011;46498;49.968;7.754;2023-01-13T07:44:02;15.95;;;5.75;;
28605;SDS011;46498;49.968;7.754;2023-01-13T07:49:05;7.05;;;1.27;;
28605;SDS011;46498;49.968;7.754;2023-01-13T07:54:07;7.20;;;1.70;;
28605;SDS011;46498;49.968;7.754;2023-01-13T07:59:08;5.18;;;2.00;;
28605;SDS011;46498;49.968;7.754;2023-01-13T08:04:09;6.22;;;1.25;;
28605;SDS011;46498;49.968;7.754;2023-01-13T08:09:10;5.68;;;1.42;;
28605;SDS011;46498;49.968;7.754;2023-01-13T08:14:11;7.15;;;1.10;;
28605;SDS011;46498;49.968;7.754;2023-01-13T08:19:11;5.57;;;1.50;;
28605;SDS011;46498;49.968;7.754;2023-01-13T08:24:12;8.85;;;1.52;;
28605;SDS011;46498;49.968;7.754;2023-01-13T08:29:13;5.72;;;1.30;;
28605;SDS011;46498;49.968;7.754;2023-01-13T08:34:15;7.10;;;1.37;;
28605;SDS011;46498;49.968;7.754;2023-01-13T08:39:16;7.57;;;0.88;;
28605;SDS011;46498;49.968;7.754;2023-01-13T08:44:18;7.03;;;1.50;;
28605;SDS011;46498;49.968;7.754;2023-01-13T08:49:19;6.28;;;1.10;;
28605;SDS011;46498;49.968;7.754;2023-01-13T08:54:20;7.80;;;0.95;;
28605;SDS011;46498;49.968;7.754;2023-01-13T08:59:21;6.35;;;1.20;;
28605;SDS011;46498;49.968;7.754;2023-01-13T09:04:22;6.82;;;1.40;;
28605;SDS011;46498;49.968;7.754;2023-01-13T09:09:24;9.95;;;2.25;;
28605;SDS011;46498;49.968;7.754;2023-01-13T09:14:28;8.87;;;0.93;;
28605;SDS011;46498;49.968;7.754;2023-01-13T09:19:31;10.40;;;1.50;;
28605;SDS011;46498;49.968;7.754;2023-01-13T09:24:32;11.35;;;1.67;;
28605;SDS011;46498;49.968;7.754;2023-01-13T09:29:32;7.43;;;1.50;;
28605;SDS011;46498;49.968;7.754;2023-01-13T09:34:34;13.80;;;1.58;;
28605;SDS011;46498;49.968;7.754;2023-01-13T09:39:53;11.15;;;1.60;;
28605;SDS011;46498;49.968;7.754;2023-01-13T09:45:13;11.32;;;1.65;;
28605;SDS011;46498;49.968;7.754;2023-01-13T09:50:23;13.60;;;2.65;;
28605;SDS011;46498;49.968;7.754;2023-01-13T09:55:33;10.35;;;1.92;;
28605;SDS011;46498;49.968;7.754;2023-01-13T10:12:14;11.67;;;1.33;;
28605;SDS011;46498;49.968;7.754;2023-01-13T10:17:39;10.80;;;1.87;;
28605;SDS011;46498;49.968;7.754;2023-01-13T10:31:10;11.48;;;1.50;;
28605;SDS011;46498;49.968;7.754;2023-01-13T10:36:17;13.15;;;1.98;;
28605;SDS011;46498;49.968;7.754;2023-01-13T10:41:25;9.85;;;1.40;;
28605;SDS011;46498;49.968;7.754;2023-01-13T10:46:27;8.02;;;1.70;;
28605;SDS011;46498;49.968;7.754;2023-01-13T10:51:41;14.82;;;1.75;;
28605;SDS011;46498;49.968;7.754;2023-01-13T10:56:43;14.05;;;2.10;;
28605;SDS011;46498;49.968;7.754;2023-01-13T11:02:01;15.13;;;1.80;;
28605;SDS011;46498;49.968;7.754;2023-01-13T11:07:37;12.20;;;1.62;;
28605;SDS011;46498;49.968;7.754;2023-01-13T11:12:45;10.85;;;1.67;;
28605;SDS011;46498;49.968;7.754;2023-01-13T11:23:11;13.38;;;1.92;;
28605;SDS011;46498;49.968;7.754;2023-01-13T11:28:59;11.73;;;1.70;;
28605;SDS011;46498;49.968;7.754;2023-01-13T11:34:13;12.02;;;2.55;;
28605;SDS011;46498;49.968;7.754;2023-01-13T11:39:43;7.70;;;1.25;;
28605;SDS011;46498;49.968;7.754;2023-01-13T11:51:32;9.95;;;1.70;;
28605;SDS011;46498;49.968;7.754;2023-01-13T12:05:38;13.05;;;1.73;;
28605;SDS011;46498;49.968;7.754;2023-01-13T12:11:01;15.20;;;1.87;;
28605;SDS011;46498;49.968;7.754;2023-01-13T12:16:19;14.35;;;2.00;;
28605;SDS011;46498;49.968;7.754;2023-01-13T12:21:24;11.05;;;1.70;;
28605;SDS011;46498;49.968;7.754;2023-01-13T12:26:29;12.35;;;1.67;;
28605;SDS011;46498;49.968;7.754;2023-01-13T12:31:35;11.18;;;1.37;;
28605;SDS011;46498;49.968;7.754;2023-01-13T12:55:24;14.80;;;2.37;;
28605;SDS011;46498;49.968;7.754;2023-01-13T13:06:36;12.73;;;2.12;;
28605;SDS011;46498;49.968;7.754;2023-01-13T13:11:42;14.10;;;1.70;;
28605;SDS011;46498;49.968;7.754;2023-01-13T13:30:52;12.52;;;1.58;;
28605;SDS011;46498;49.968;7.754;2023-01-13T13:36:12;10.98;;;1.60;;
28605;SDS011;46498;49.968;7.754;2023-01-13T13:41:35;15.07;;;1.85;;
28605;SDS011;46498;49.968;7.754;2023-01-13T13:47:10;13.00;;;1.58;;
28605;SDS011;46498;49.968;7.754;2023-01-13T13:59:04;11.00;;;1.55;;
28605;SDS011;46498;49.968;7.754;2023-01-13T14:04:20;8.40;;;1.27;;
28605;SDS011;46498;49.968;7.754;2023-01-13T14:09:26;8.82;;;1.40;;
28605;SDS011;46498;49.968;7.754;2023-01-13T14:14:41;14.38;;;1.37;;
28605;SDS011;46498;49.968;7.754;2023-01-13T14:19:42;12.52;;;1.60;;
28605;SDS011;46498;49.968;7.754;2023-01-13T14:24:47;7.62;;;1.75;;
28605;SDS011;46498;49.968;7.754;2023-01-13T14:29:55;54.92;;;15.63;;
28605;SDS011;46498;49.968;7.754;2023-01-13T14:34:59;9.10;;;1.50;;
28605;SDS011;46498;49.968;7.754;2023-01-13T14:40:00;9.95;;;1.80;;
28605;SDS011;46498;49.968;7.754;2023-01-13T14:45:01;13.77;;;1.55;;
28605;SDS011;46498;49.968;7.754;2023-01-13T14:50:11;12.30;;;1.52;;
28605;SDS011;46498;49.968;7.754;2023-01-13T14:55:20;12.68;;;2.15;;
28605;SDS011;46498;49.968;7.754;2023-01-13T15:00:33;11.73;;;2.10;;
28605;SDS011;46498;49.968;7.754;2023-01-13T15:05:36;12.75;;;2.58;;
28605;SDS011;46498;49.968;7.754;2023-01-13T15:10:49;13.43;;;3.53;;
28605;SDS011;46498;49.968;7.754;2023-01-13T15:15:57;17.60;;;2.58;;
28605;SDS011;46498;49.968;7.754;2023-01-13T15:21:01;11.50;;;1.98;;
28605;SDS011;46498;49.968;7.754;2023-01-13T15:26:02;15.65;;;3.65;;
28605;SDS011;46498;49.968;7.754;2023-01-13T15:31:03;13.48;;;2.42;;
28605;SDS011;46498;49.968;7.754;2023-01-13T15:36:05;9.68;;;1.50;;
28605;SDS011;46498;49.968;7.754;2023-01-13T15:41:16;17.00;;;2.37;;
28605;SDS011;46498;49.968;7.754;2023-01-13T15:46:17;9.32;;;1.50;;
28605;SDS011;46498;49.968;7.754;2023-01-13T15:51:37;14.38;;;2.00;;
28605;SDS011;46498;49.968;7.754;2023-01-13T15:56:39;10.37;;;2.03;;
28605;SDS011;46498;49.968;7.754;2023-01-13T16:01:41;11.50;;;2.10;;
28605;SDS011;46498;49.968;7.754;2023-01-13T16:06:42;14.15;;;2.55;;
28605;SDS011;46498;49.968;7.754;2023-01-13T16:11:43;12.98;;;2.20;;
28605;SDS011;46498;49.968;7.754;2023-01-13T16:16:44;8.60;;;1.55;;
28605;SDS011;46498;49.968;7.754;2023-01-13T16:21:45;13.60;;;2.10;;
28605;SDS011;46498;49.968;7.754;2023-01-13T16:26:45;12.10;;;1.92;;
28605;SDS011;46498;49.968;7.754;2023-01-13T16:31:46;12.60;;;1.50;;
28605;SDS011;46498;49.968;7.754;2023-01-13T16:36:47;11.40;;;1.62;;
28605;SDS011;46498;49.968;7.754;2023-01-13T16:41:48;10.65;;;1.80;;
28605;SDS011;46498;49.968;7.754;2023-01-13T16:46:49;24.90;;;4.15;;
28605;SDS011;46498;49.968;7.754;2023-01-13T16:51:50;8.80;;;2.05;;
28605;SDS011;46498;49.968;7.754;2023-01-13T16:56:51;16.70;;;1.58;;
28605;SDS011;46498;49.968;7.754;2023-01-13T17:01:52;11.73;;;3.10;;
28605;SDS011;46498;49.968;7.754;2023-01-13T17:06:55;14.32;;;3.67;;
28605;SDS011;46498;49.968;7.754;2023-01-13T17:11:57;12.57;;;1.55;;
28605;SDS011;46498;49.968;7.754;2023-01-13T17:16:58;18.77;;;3.47;;
28605;SDS011;46498;49.968;7.754;2023-01-13T17:21:59;10.15;;;1.87;;
28605;SDS011;46498;49.968;7.754;2023-01-13T17:27:00;14.48;;;2.08;;
28605;SDS011;46498;49.968;7.754;2023-01-13T17:32:03;20.40;;;3.00;;
28605;SDS011;46498;49.968;7.754;2023-01-13T17:37:04;11.40;;;2.12;;
28605;SDS011;46498;49.968;7.754;2023-01-13T17:42:05;19.25;;;2.08;;
28605;SDS011;46498;49.968;7.754;2023-01-13T17:47:05;21.48;;;2.50;;
28605;SDS011;46498;49.968;7.754;2023-01-13T17:52:06;14.25;;;3.20;;
28605;SDS011;46498;49.968;7.754;2023-01-13T17:57:07;15.38;;;1.75;;
28605;SDS011;46498;49.968;7.754;2023-01-13T18:02:10;19.37;;;2.40;;
28605;SDS011;46498;49.968;7.754;2023-01-13T18:07:12;13.38;;;2.97;;
28605;SDS011;46498;49.968;7.754;2023-01-13T18:12:13;19.98;;;2.10;;
28605;SDS011;46498;49.968;7.754;2023-01-13T18:17:14;16.20;;;2.55;;
28605;SDS011;46498;49.968;7.754;2023-01-13T18:22:16;14.18;;;1.67;;
28605;SDS011;46498;49.968;7.754;2023-01-13T18:27:35;17.50;;;2.90;;
28605;SDS011;46498;49.968;7.754;2023-01-13T18:32:39;14.77;;;2.28;;
28605;SDS011;46498;49.968;7.754;2023-01-13T18:37:40;15.98;;;2.25;;
28605;SDS011;46498;49.968;7.754;2023-01-13T18:42:41;13.75;;;2.00;;
28605;SDS011;46498;49.968;7.754;2023-01-13T18:47:52;12.18;;;1.73;;
28605;SDS011;46498;49.968;7.754;2023-01-13T18:57:56;17.40;;;2.10;;
28605;SDS011;46498;49.968;7.754;2023-01-13T19:02:57;10.57;;;1.42;;
28605;SDS011;46498;49.968;7.754;2023-01-13T19:08:06;22.42;;;4.20;;
28605;SDS011;46498;49.968;7.754;2023-01-13T19:13:07;15.02;;;4.15;;
28605;SDS011;46498;49.968;7.754;2023-01-13T19:18:07;21.83;;;2.92;;
28605;SDS011;46498;49.968;7.754;2023-01-13T19:23:08;18.15;;;2.58;;
28605;SDS011;46498;49.968;7.754;2023-01-13T19:28:11;19.52;;;2.67;;
28605;SDS011;46498;49.968;7.754;2023-01-13T19:33:12;27.90;;;2.90;;
28605;SDS011;46498;49.968;7.754;2023-01-13T19:38:12;18.67;;;2.42;;
28605;SDS011;46498;49.968;7.754;2023-01-13T19:43:13;14.40;;;1.95;;
28605;SDS011;46498;49.968;7.754;2023-01-13T19:48:32;14.85;;;2.28;;
28605;SDS011;46498;49.968;7.754;2023-01-13T19:53:33;21.55;;;3.40;;
28605;SDS011;46498;49.968;7.754;2023-01-13T19:58:34;19.20;;;2.85;;
28605;SDS011;46498;49.968;7.754;2023-01-13T20:03:35;19.50;;;4.72;;
28605;SDS011;46498;49.968;7.754;2023-01-13T20:08:37;33.20;;;6.05;;
28605;SDS011;46498;49.968;7.754;2023-01-13T20:13:38;16.58;;;4.25;;
28605;SDS011;46498;49.968;7.754;2023-01-13T20:18:39;18.50;;;3.62;;
28605;SDS011;46498;49.968;7.754;2023-01-13T20:23:40;23.35;;;3.75;;
28605;SDS011;46498;49.968;7.754;2023-01-13T20:28:41;17.52;;;2.17;;
28605;SDS011;46498;49.968;7.754;2023-01-13T20:33:42;27.42;;;3.45;;
28605;SDS011;46498;49.968;7.754;2023-01-13T20:38:43;26.40;;;3.65;;
28605;SDS011;46498;49.968;7.754;2023-01-13T20:43:44;19.62;;;3.08;;
28605;SDS011;46498;49.968;7.754;2023-01-13T20:48:44;21.17;;;3.00;;
28605;SDS011;46498;49.968;7.754;2023-01-13T20:53:45;24.95;;;4.90;;
28605;SDS011;46498;49.968;7.754;2023-01-13T20:58:46;25.77;;;3.65;;
28605;SDS011;46498;49.968;7.754;2023-01-13T21:03:47;25.67;;;5.30;;
28605;SDS011;46498;49.968;7.754;2023-01-13T21:08:49;22.05;;;3.22;;
28605;SDS011;46498;49.968;7.754;2023-01-13T21:13:52;13.57;;;2.40;;
28605;SDS011;46498;49.968;7.754;2023-01-13T21:19:11;20.17;;;3.90;;
28605;SDS011;46498;49.968;7.754;2023-01-13T21:24:12;18.85;;;2.53;;
28605;SDS011;46498;49.968;7.754;2023-01-13T21:29:13;17.08;;;2.80;;
28605;SDS011;46498;49.968;7.754;2023-01-13T21:34:14;24.70;;;3.30;;
28605;SDS011;46498;49.968;7.754;2023-01-13T21:39:15;19.90;;;2.20;;
28605;SDS011;46498;49.968;7.754;2023-01-13T21:44:17;23.45;;;3.30;;
28605;SDS011;46498;49.968;7.754;2023-01-13T21:49:38;19.70;;;2.75;;
28605;SDS011;46498;49.968;7.754;2023-01-13T21:54:43;30.65;;;3.00;;
28605;SDS011;46498;49.968;7.754;2023-01-13T22:00:03;36.30;;;5.93;;
28605;SDS011;46498;49.968;7.754;2023-01-13T22:05:05;28.67;;;4.07;;
28605;SDS011;46498;49.968;7.754;2023-01-13T22:10:09;23.83;;;2.90;;
28605;SDS011;46498;49.968;7.754;2023-01-13T22:15:13;25.60;;;3.72;;
28605;SDS011;46498;49.968;7.754;2023-01-13T22:20:15;24.60;;;3.85;;
28605;SDS011;46498;49.968;7.754;2023-01-13T22:25:17;23.25;;;4.57;;
28605;SDS011;46498;49.968;7.754;2023-01-13T22:30:19;26.48;;;4.03;;
28605;SDS011;46498;49.968;7.754;2023-01-13T22:35:21;33.03;;;5.50;;
28605;SDS011;46498;49.968;7.754;2023-01-13T22:40:22;21.05;;;4.28;;
28605;SDS011;46498;49.968;7.754;2023-01-13T22:45:23;27.33;;;5.60;;
28605;SDS011;46498;49.968;7.754;2023-01-13T22:50:23;26.92;;;3.42;;
28605;SDS011;46498;49.968;7.754;2023-01-13T22:55:24;20.73;;;3.35;;
28605;SDS011;46498;49.968;7.754;2023-01-13T23:00:25;23.40;;;3.92;;
28605;SDS011;46498;49.968;7.754;2023-01-13T23:05:26;22.70;;;3.45;;
28605;SDS011;46498;49.968;7.754;2023-01-13T23:10:27;27.30;;;3.00;;
28605;SDS011;46498;49.968;7.754;2023-01-13T23:15:28;26.25;;;2.92;;
28605;SDS011;46498;49.968;7.754;2023-01-13T23:20:30;19.60;;;3.03;;
28605;SDS011;46498;49.968;7.754;2023-01-13T23:25:31;15.32;;;2.45;;
28605;SDS011;46498;49.968;7.754;2023-01-13T23:30:31;24.58;;;2.83;;
28605;SDS011;46498;49.968;7.754;2023-01-13T23:35:32;21.98;;;3.40;;
28605;SDS011;46498;49.968;7.754;2023-01-13T23:40:33;25.92;;;2.70;;
28605;SDS011;46498;49.968;7.754;2023-01-13T23:45:34;21.95;;;3.78;;
28605;SDS011;46498;49.968;7.754;2023-01-13T23:50:35;28.40;;;3.90;;
28605;SDS011;46498;49.968;7.754;2023-01-13T23:55:36;23.25;;;2.90;;
